Terminal Aerodrome Forecast
Issued by NWS New Orleans/Baton Rouge, LA

Home | Current Version | Previous Version | Text Only | Print | Product List | Glossary On
Versions: 1 2 3 4 5 6 7 8 9 10 11 12 13 14 15
000
FTUS44 KLIX 050520
TAFBTR
TAF
KBTR 050520Z 0506/0606 00000KT P6SM SCT060
     FM051200 00000KT P6SM SCT020 BKN060
     FM051700 30004KT P6SM BKN035
     FM060000 VRB03KT P6SM BKN050=

USA.gov is the U.S. government's official web portal to all federal, state and local government web resources and services.